Albany, Oregon
Current Conditions -  °F | °C
As of 9:35 AM on Friday 24 Oct 2014 (Local Time) from KCVO Reporting Station
Overcast Overcast  
Wind Chill: 52°   Ceiling: 11000
Heat Index: 52°   Visibility: 9mi
Dew Point: 48°   Wind: 3mph
Humidity: 88%   Direction: 310°NW
Pressure: 29.97"   Gusts: NA
Location:  44.64°N, 123.1°W
Report Text: KCVO 241635Z AUTO 31003KT 9SM OVC110 11/09 A2997 RMK AO1
Loading
Personal Weather Stations






























Interactive Weather Map
Tropical Storm Tracking
New forecast layout! Learn more

10-Day Weather Forecast

Advertisements
Track Severe Weather on mobile